createdAt,value
2019-02-16T00:03:31.956Z,45.10
2019-02-16T00:08:38.691Z,45.23
2019-02-16T00:13:45.293Z,45.45
2019-02-16T00:18:51.236Z,45.58
2019-02-16T00:23:57.947Z,46.07
2019-02-16T00:29:03.727Z,45.96
2019-02-16T00:34:09.495Z,45.51
2019-02-16T00:39:15.228Z,45.68
2019-02-16T00:44:21.592Z,45.77
2019-02-16T00:49:27.599Z,46.36
2019-02-16T00:54:34.417Z,45.97
2019-02-16T00:59:40.672Z,46.54
2019-02-16T01:04:46.329Z,46.28
2019-02-16T01:09:52.475Z,46.81
2019-02-16T01:14:58.513Z,46.22
2019-02-16T01:20:06.829Z,46.82
2019-02-16T01:25:14.303Z,46.31
2019-02-16T01:30:20.733Z,46.60
2019-02-16T01:35:26.297Z,46.59
2019-02-16T01:40:32.734Z,46.74
2019-02-16T01:45:39.128Z,46.36
2019-02-16T01:50:45.163Z,46.55
2019-02-16T01:55:51.592Z,47.18
2019-02-16T02:00:57.760Z,47.72
2019-02-16T02:06:04.619Z,47.90
2019-02-16T02:11:10.824Z,47.53
2019-02-16T02:16:17.064Z,48.10
2019-02-16T02:21:23.216Z,48.27
2019-02-16T02:26:29.134Z,48.61
2019-02-16T02:31:37.456Z,48.62
2019-02-16T02:36:44.034Z,49.34
2019-02-16T02:41:49.590Z,48.55
2019-02-16T02:46:55.451Z,48.43
2019-02-16T02:52:01.490Z,48.78
2019-02-16T02:57:07.203Z,49.07
2019-02-16T03:02:14.926Z,49.30
2019-02-16T03:07:20.577Z,49.63
2019-02-16T03:12:26.621Z,48.98
2019-02-16T03:17:32.931Z,49.09
2019-02-16T03:23:16.331Z,49.14
2019-02-16T03:28:34.470Z,49.32
2019-02-16T03:33:43.519Z,49.63
2019-02-16T03:38:58.062Z,49.80
2019-02-16T03:44:04.147Z,49.68
2019-02-16T03:49:10.668Z,49.93
2019-02-16T03:54:17.913Z,49.65
2019-02-16T03:59:23.648Z,50.07
2019-02-16T04:04:29.369Z,50.07
2019-02-16T04:09:35.382Z,50.05
2019-02-16T04:14:40.946Z,50.67
2019-02-16T04:19:46.850Z,50.33
2019-02-16T04:24:53.025Z,50.11
2019-02-16T04:29:59.251Z,50.26
2019-02-16T04:35:07.068Z,50.67
2019-02-16T04:40:12.847Z,50.49
2019-02-16T04:45:18.934Z,50.90
2019-02-16T04:50:24.868Z,50.75
2019-02-16T04:55:30.873Z,50.67
2019-02-16T05:00:36.827Z,51.25
2019-02-16T05:05:42.382Z,51.26
2019-02-16T05:10:48.991Z,51.25
2019-02-16T05:15:54.633Z,51.48
2019-02-16T05:21:02.004Z,52.00
2019-02-16T05:26:08.548Z,52.11
2019-02-16T05:31:14.181Z,52.98
2019-02-16T05:36:21.077Z,52.23
2019-02-16T05:41:26.998Z,52.43
2019-02-16T05:46:32.589Z,52.13
2019-02-16T05:51:38.342Z,51.94
2019-02-16T05:56:44.744Z,52.13
2019-02-16T06:01:54.228Z,52.49
2019-02-16T06:06:59.854Z,52.82
2019-02-16T06:12:05.626Z,52.76
2019-02-16T06:17:13.913Z,51.93
2019-02-16T06:22:19.656Z,52.58
2019-02-16T06:27:26.009Z,52.82
2019-02-16T06:32:32.520Z,52.13
2019-02-16T06:37:38.739Z,51.81
2019-02-16T06:42:44.700Z,52.15
2019-02-16T06:47:50.603Z,51.62
2019-02-16T06:52:56.493Z,51.44
2019-02-16T06:58:03.101Z,51.57
2019-02-16T07:03:08.838Z,51.35
2019-02-16T07:08:15.841Z,51.14
2019-02-16T07:13:22.123Z,50.97
2019-02-16T07:18:29.354Z,51.21
2019-02-16T07:23:35.035Z,51.18
2019-02-16T07:28:41.141Z,50.74
2019-02-16T07:33:46.875Z,49.95
2019-02-16T07:38:53.380Z,50.12
2019-02-16T07:44:02.232Z,49.81
2019-02-16T07:49:25.503Z,49.47
2019-02-16T07:54:41.775Z,49.67
2019-02-16T07:59:52.121Z,48.85
2019-02-16T08:04:59.513Z,48.62
2019-02-16T08:10:19.938Z,48.15
2019-02-16T08:15:45.208Z,47.38
2019-02-16T08:20:53.690Z,46.77
2019-02-16T08:26:01.513Z,46.82
2019-02-16T08:31:09.230Z,46.32
2019-02-16T08:36:19.602Z,45.53
2019-02-16T08:41:32.952Z,44.74
2019-02-16T08:46:45.482Z,44.35
2019-02-16T08:51:54.526Z,43.35
2019-02-16T08:57:11.415Z,42.47
2019-02-16T09:02:25.661Z,42.65
2019-02-16T09:07:49.712Z,42.00
2019-02-16T09:12:58.318Z,41.25
2019-02-16T09:18:18.133Z,40.10
2019-02-16T09:23:31.453Z,39.03
2019-02-16T09:28:55.020Z,38.49
2019-02-16T09:34:02.266Z,38.11
2019-02-16T09:39:25.178Z,37.66
2019-02-16T09:44:35.777Z,36.94
2019-02-16T09:49:43.096Z,36.06
2019-02-16T09:54:51.299Z,35.29
2019-02-16T09:59:59.262Z,34.90
2019-02-16T10:05:14.489Z,34.04
2019-02-16T10:10:47.380Z,33.45
2019-02-16T10:16:00.876Z,32.71
2019-02-16T10:21:12.934Z,31.29
2019-02-16T10:26:22.490Z,31.06
2019-02-16T10:31:37.206Z,29.62
2019-02-16T10:36:45.532Z,28.59
2019-02-16T10:42:00.024Z,29.19
2019-02-16T10:47:13.514Z,28.30
2019-02-16T10:52:26.578Z,27.44
2019-02-16T10:57:49.055Z,27.18
2019-02-16T11:03:00.585Z,26.97
2019-02-16T11:08:12.037Z,26.57
2019-02-16T11:13:20.365Z,25.79
2019-02-16T11:18:45.450Z,26.05
2019-02-16T11:24:01.705Z,25.95
2019-02-16T11:29:12.797Z,25.09
2019-02-16T11:34:33.738Z,26.06
2019-02-16T11:39:43.394Z,25.57
2019-02-16T11:44:51.339Z,24.37
2019-02-16T11:50:08.701Z,24.20
2019-02-16T11:55:34.237Z,23.29
2019-02-16T12:00:43.361Z,23.42
2019-02-16T12:05:52.020Z,23.13
2019-02-16T12:11:20.138Z,22.54
2019-02-16T12:16:33.666Z,22.90
2019-02-16T12:21:43.020Z,23.64
2019-02-16T12:26:57.321Z,22.91
2019-02-16T12:32:06.140Z,22.82
2019-02-16T12:37:15.865Z,22.52
2019-02-16T12:42:35.997Z,22.34
2019-02-16T12:47:53.822Z,21.48
2019-02-16T12:53:04.827Z,21.61
2019-02-16T12:58:12.199Z,21.64
2019-02-16T13:03:23.881Z,21.63
2019-02-16T13:08:39.410Z,21.05
2019-02-16T13:13:52.088Z,21.06
2019-02-16T13:19:02.663Z,20.24
2019-02-16T13:24:13.231Z,20.15
2019-02-16T13:29:30.231Z,20.67
2019-02-16T13:34:38.610Z,21.48
2019-02-16T13:39:56.169Z,20.29
2019-02-16T13:45:08.500Z,20.74
2019-02-16T13:50:17.580Z,20.38
2019-02-16T13:55:42.559Z,19.86
2019-02-16T14:00:51.022Z,20.18
2019-02-16T14:06:10.537Z,20.49
2019-02-16T14:11:25.072Z,20.42
2019-02-16T14:16:39.037Z,19.05
2019-02-16T14:21:47.257Z,18.96
2019-02-16T14:26:55.285Z,19.06
2019-02-16T14:32:05.821Z,19.45
2019-02-16T14:37:34.077Z,19.31
2019-02-16T14:42:46.019Z,19.82
2019-02-16T14:47:59.733Z,19.52
2019-02-16T14:53:09.005Z,19.89
2019-02-16T14:58:18.009Z,19.16
2019-02-16T15:03:27.263Z,19.31
2019-02-16T15:08:35.252Z,18.71
2019-02-16T15:13:45.128Z,18.01
2019-02-16T15:18:54.594Z,19.05
2019-02-16T15:24:04.911Z,18.37
2019-02-16T15:29:15.286Z,19.15
2019-02-16T15:34:24.922Z,19.50
2019-02-16T15:39:33.433Z,19.84
2019-02-16T15:44:43.148Z,19.93
2019-02-16T15:50:13.401Z,19.91
2019-02-16T15:55:25.357Z,21.05
2019-02-16T16:00:35.883Z,21.42
2019-02-16T16:05:44.989Z,21.30
2019-02-16T16:10:53.575Z,21.11
2019-02-16T16:16:02.326Z,21.49
2019-02-16T16:21:14.852Z,22.03
2019-02-16T16:26:32.955Z,23.27
2019-02-16T16:31:41.761Z,24.20
2019-02-16T16:36:50.754Z,24.85
2019-02-16T16:42:08.668Z,25.09
2019-02-16T16:47:18.284Z,25.46
2019-02-16T16:52:25.745Z,26.11
2019-02-16T16:57:37.261Z,26.32
2019-02-16T17:03:02.618Z,26.32
2019-02-16T17:08:10.656Z,26.49
2019-02-16T17:13:30.402Z,27.10
2019-02-16T17:18:43.806Z,27.22
2019-02-16T17:23:54.458Z,27.79
2019-02-16T17:29:05.932Z,28.22
2019-02-16T17:34:13.568Z,28.16
2019-02-16T17:39:39.852Z,28.41
2019-02-16T17:44:50.478Z,28.75
2019-02-16T17:50:00.925Z,28.84
2019-02-16T17:55:12.917Z,29.10
2019-02-16T18:00:24.338Z,29.64
2019-02-16T18:05:49.194Z,29.53
2019-02-16T18:11:13.612Z,29.48
2019-02-16T18:16:20.829Z,29.85
2019-02-16T18:21:34.893Z,30.38
2019-02-16T18:26:56.624Z,30.43
2019-02-16T18:32:17.271Z,30.33
2019-02-16T18:37:31.994Z,31.10
2019-02-16T18:42:49.524Z,31.29
2019-02-16T18:48:02.891Z,31.20
2019-02-16T18:53:16.935Z,31.49
2019-02-16T18:58:24.796Z,31.58
2019-02-16T19:03:51.773Z,31.95
2019-02-16T19:08:59.722Z,31.70
2019-02-16T19:14:10.033Z,32.12
2019-02-16T19:19:20.654Z,32.53
2019-02-16T19:24:28.949Z,32.95
2019-02-16T19:29:36.542Z,33.20
2019-02-16T19:35:00.685Z,33.03
2019-02-16T19:40:15.098Z,33.21
2019-02-16T19:45:28.635Z,33.30
2019-02-16T19:50:52.836Z,33.65
2019-02-16T19:56:06.688Z,33.60
2019-02-16T20:01:16.054Z,33.75
2019-02-16T20:06:23.381Z,34.05
2019-02-16T20:11:44.137Z,34.33
2019-02-16T20:16:56.642Z,34.11
2019-02-16T20:22:23.844Z,33.91
2019-02-16T20:27:45.447Z,34.17
2019-02-16T20:32:58.631Z,34.76
2019-02-16T20:38:11.279Z,34.79
2019-02-16T20:43:19.270Z,35.00
2019-02-16T20:48:45.349Z,35.13
2019-02-16T20:53:58.655Z,35.10
2019-02-16T20:59:09.865Z,34.72
2019-02-16T21:04:17.604Z,35.28
2019-02-16T21:09:28.222Z,35.16
2019-02-16T21:14:51.901Z,36.01
2019-02-16T21:20:07.941Z,36.36
2019-02-16T21:25:30.193Z,36.51
2019-02-16T21:30:40.192Z,36.96
2019-02-16T21:36:00.105Z,36.77
2019-02-16T21:41:25.761Z,37.28
2019-02-16T21:46:33.533Z,37.36
2019-02-16T21:51:54.749Z,37.67
2019-02-16T21:57:02.640Z,38.07
2019-02-16T22:02:11.649Z,37.71
2019-02-16T22:07:19.245Z,38.12
2019-02-16T22:12:26.795Z,37.97
2019-02-16T22:17:34.029Z,38.00
2019-02-16T22:22:39.673Z,37.87
2019-02-16T22:27:45.587Z,37.76
2019-02-16T22:32:53.633Z,37.83
2019-02-16T22:38:00.283Z,38.29
2019-02-16T22:43:06.164Z,38.74
2019-02-16T22:48:13.263Z,38.97
2019-02-16T22:53:20.575Z,39.01
2019-02-16T22:58:29.103Z,39.66
2019-02-16T23:03:35.244Z,39.38
2019-02-16T23:08:40.839Z,39.03
2019-02-16T23:13:47.624Z,38.46
2019-02-16T23:18:54.537Z,38.34
2019-02-16T23:24:02.023Z,38.28
2019-02-16T23:29:07.632Z,38.49
2019-02-16T23:34:13.776Z,38.44
2019-02-16T23:39:19.611Z,39.10
2019-02-16T23:44:25.405Z,39.20
2019-02-16T23:49:31.115Z,39.83
2019-02-16T23:54:38.441Z,40.19
2019-02-16T23:59:45.501Z,40.76
